sensor_id;sensor_type;location;lat;lon;timestamp;pressure;altitude;pressure_sealevel;temperature;humidity
30708;BME280;17458;48.958;8.284;2023-03-03T00:01:25;100687.56;;;5.94;61.37
30708;BME280;17458;48.958;8.284;2023-03-03T00:04:09;100695.00;;;6.00;61.78
30708;BME280;17458;48.958;8.284;2023-03-03T00:06:53;100696.72;;;5.99;61.82
30708;BME280;17458;48.958;8.284;2023-03-03T00:09:37;100686.63;;;5.82;61.15
30708;BME280;17458;48.958;8.284;2023-03-03T00:12:27;100688.81;;;5.88;61.61
30708;BME280;17458;48.958;8.284;2023-03-03T00:15:17;100691.41;;;5.76;62.24
30708;BME280;17458;48.958;8.284;2023-03-03T00:18:12;100681.84;;;5.88;61.86
30708;BME280;17458;48.958;8.284;2023-03-03T00:21:01;100684.22;;;5.85;62.01
30708;BME280;17458;48.958;8.284;2023-03-03T00:23:45;100685.38;;;5.65;62.55
30708;BME280;17458;48.958;8.284;2023-03-03T00:26:34;100686.75;;;5.84;61.84
30708;BME280;17458;48.958;8.284;2023-03-03T00:29:36;100680.66;;;5.85;61.69
30708;BME280;17458;48.958;8.284;2023-03-03T00:32:42;100685.59;;;5.80;62.62
30708;BME280;17458;48.958;8.284;2023-03-03T00:35:31;100688.44;;;5.83;61.99
30708;BME280;17458;48.958;8.284;2023-03-03T00:38:19;100696.69;;;5.76;62.18
30708;BME280;17458;48.958;8.284;2023-03-03T00:41:14;100697.97;;;5.69;62.18
30708;BME280;17458;48.958;8.284;2023-03-03T00:44:00;100698.66;;;5.67;62.12
30708;BME280;17458;48.958;8.284;2023-03-03T00:46:44;100698.44;;;5.64;62.26
30708;BME280;17458;48.958;8.284;2023-03-03T00:49:28;100692.34;;;5.53;61.42
30708;BME280;17458;48.958;8.284;2023-03-03T00:52:17;100691.00;;;5.47;62.35
30708;BME280;17458;48.958;8.284;2023-03-03T00:55:02;100701.63;;;5.25;62.03
30708;BME280;17458;48.958;8.284;2023-03-03T00:57:47;100706.56;;;4.87;63.14
30708;BME280;17458;48.958;8.284;2023-03-03T01:00:35;100698.16;;;5.14;62.77
30708;BME280;17458;48.958;8.284;2023-03-03T01:03:22;100698.06;;;5.13;62.93
30708;BME280;17458;48.958;8.284;2023-03-03T01:06:08;100700.81;;;5.14;62.38
30708;BME280;17458;48.958;8.284;2023-03-03T01:08:52;100702.63;;;5.04;62.28
30708;BME280;17458;48.958;8.284;2023-03-03T01:11:37;100700.13;;;4.72;62.78
30708;BME280;17458;48.958;8.284;2023-03-03T01:14:21;100695.28;;;4.66;62.74
30708;BME280;17458;48.958;8.284;2023-03-03T01:17:05;100691.56;;;4.52;63.06
30708;BME280;17458;48.958;8.284;2023-03-03T01:19:49;100699.19;;;4.49;63.28
30708;BME280;17458;48.958;8.284;2023-03-03T01:22:33;100688.19;;;4.65;62.57
30708;BME280;17458;48.958;8.284;2023-03-03T01:25:17;100690.94;;;4.67;63.41
30708;BME280;17458;48.958;8.284;2023-03-03T01:28:01;100689.06;;;4.54;63.21
30708;BME280;17458;48.958;8.284;2023-03-03T01:30:44;100690.22;;;4.57;63.49
30708;BME280;17458;48.958;8.284;2023-03-03T01:33:30;100693.91;;;4.59;63.16
30708;BME280;17458;48.958;8.284;2023-03-03T01:36:15;100690.91;;;4.55;63.28
30708;BME280;17458;48.958;8.284;2023-03-03T01:38:59;100692.47;;;4.53;63.21
30708;BME280;17458;48.958;8.284;2023-03-03T01:41:44;100691.09;;;4.46;63.59
30708;BME280;17458;48.958;8.284;2023-03-03T01:44:27;100690.22;;;4.36;64.44
30708;BME280;17458;48.958;8.284;2023-03-03T01:47:16;100686.78;;;4.58;63.33
30708;BME280;17458;48.958;8.284;2023-03-03T01:50:10;100691.44;;;4.51;62.92
30708;BME280;17458;48.958;8.284;2023-03-03T01:52:57;100689.25;;;4.23;63.42
30708;BME280;17458;48.958;8.284;2023-03-03T01:55:43;100685.97;;;4.26;63.50
30708;BME280;17458;48.958;8.284;2023-03-03T01:58:31;100681.41;;;4.35;63.90
30708;BME280;17458;48.958;8.284;2023-03-03T02:01:23;100690.13;;;4.34;63.27
30708;BME280;17458;48.958;8.284;2023-03-03T02:04:08;100676.81;;;4.21;63.61
30708;BME280;17458;48.958;8.284;2023-03-03T02:06:57;100673.13;;;4.19;62.91
30708;BME280;17458;48.958;8.284;2023-03-03T02:10:06;100675.63;;;4.17;62.92
30708;BME280;17458;48.958;8.284;2023-03-03T02:12:53;100677.94;;;4.03;63.85
30708;BME280;17458;48.958;8.284;2023-03-03T02:15:39;100672.56;;;4.01;64.01
30708;BME280;17458;48.958;8.284;2023-03-03T02:18:23;100672.50;;;4.11;64.47
30708;BME280;17458;48.958;8.284;2023-03-03T02:24:15;100677.03;;;4.24;64.74
30708;BME280;17458;48.958;8.284;2023-03-03T02:27:03;100673.88;;;4.06;63.88
30708;BME280;17458;48.958;8.284;2023-03-03T02:29:47;100671.91;;;4.04;64.14
30708;BME280;17458;48.958;8.284;2023-03-03T02:32:31;100671.13;;;4.05;63.94
30708;BME280;17458;48.958;8.284;2023-03-03T02:35:26;100677.41;;;4.07;63.85
30708;BME280;17458;48.958;8.284;2023-03-03T02:43:58;100680.31;;;4.00;63.50
30708;BME280;17458;48.958;8.284;2023-03-03T02:46:45;100677.81;;;4.01;63.77
30708;BME280;17458;48.958;8.284;2023-03-03T02:49:32;100679.81;;;3.93;63.66
30708;BME280;17458;48.958;8.284;2023-03-03T02:52:16;100693.25;;;3.86;63.94
30708;BME280;17458;48.958;8.284;2023-03-03T02:55:03;100682.50;;;3.83;63.65
30708;BME280;17458;48.958;8.284;2023-03-03T02:57:47;100688.47;;;3.71;63.87
30708;BME280;17458;48.958;8.284;2023-03-03T03:00:31;100681.13;;;3.67;63.91
30708;BME280;17458;48.958;8.284;2023-03-03T03:03:16;100678.69;;;3.80;63.80
30708;BME280;17458;48.958;8.284;2023-03-03T03:06:00;100680.19;;;3.76;63.78
30708;BME280;17458;48.958;8.284;2023-03-03T03:08:45;100679.66;;;3.70;63.87
30708;BME280;17458;48.958;8.284;2023-03-03T03:11:29;100684.03;;;3.60;64.16
30708;BME280;17458;48.958;8.284;2023-03-03T03:14:13;100686.00;;;3.62;63.71
30708;BME280;17458;48.958;8.284;2023-03-03T03:17:00;100685.38;;;3.54;64.08
30708;BME280;17458;48.958;8.284;2023-03-03T03:19:45;100689.56;;;3.63;64.43
30708;BME280;17458;48.958;8.284;2023-03-03T03:22:29;100693.16;;;3.43;64.87
30708;BME280;17458;48.958;8.284;2023-03-03T03:25:13;100682.59;;;3.53;64.65
30708;BME280;17458;48.958;8.284;2023-03-03T03:27:58;100690.50;;;3.53;64.85
30708;BME280;17458;48.958;8.284;2023-03-03T03:30:43;100695.50;;;3.50;64.73
30708;BME280;17458;48.958;8.284;2023-03-03T03:33:28;100705.75;;;3.47;65.03
30708;BME280;17458;48.958;8.284;2023-03-03T03:36:15;100702.97;;;3.55;64.76
30708;BME280;17458;48.958;8.284;2023-03-03T03:38:59;100699.59;;;3.46;64.38
30708;BME280;17458;48.958;8.284;2023-03-03T03:41:46;100694.38;;;3.36;64.80
30708;BME280;17458;48.958;8.284;2023-03-03T03:44:30;100700.41;;;3.35;64.28
30708;BME280;17458;48.958;8.284;2023-03-03T03:47:14;100711.22;;;3.08;64.96
30708;BME280;17458;48.958;8.284;2023-03-03T03:49:58;100709.88;;;3.13;64.96
30708;BME280;17458;48.958;8.284;2023-03-03T03:52:42;100708.03;;;3.22;64.81
30708;BME280;17458;48.958;8.284;2023-03-03T03:55:28;100708.56;;;3.18;64.98
30708;BME280;17458;48.958;8.284;2023-03-03T03:58:14;100706.75;;;3.07;64.91
30708;BME280;17458;48.958;8.284;2023-03-03T04:01:05;100710.03;;;2.94;65.79
30708;BME280;17458;48.958;8.284;2023-03-03T04:03:53;100709.78;;;2.91;65.92
30708;BME280;17458;48.958;8.284;2023-03-03T04:06:40;100709.75;;;3.11;65.64
30708;BME280;17458;48.958;8.284;2023-03-03T04:09:24;100702.91;;;3.13;65.86
30708;BME280;17458;48.958;8.284;2023-03-03T04:12:09;100710.81;;;3.03;65.57
30708;BME280;17458;48.958;8.284;2023-03-03T04:14:54;100713.94;;;2.99;65.93
30708;BME280;17458;48.958;8.284;2023-03-03T04:17:38;100706.47;;;3.04;65.94
30708;BME280;17458;48.958;8.284;2023-03-03T04:20:24;100705.56;;;3.03;65.72
30708;BME280;17458;48.958;8.284;2023-03-03T04:23:08;100705.81;;;3.06;65.45
30708;BME280;17458;48.958;8.284;2023-03-03T04:25:53;100700.84;;;2.89;65.87
30708;BME280;17458;48.958;8.284;2023-03-03T04:28:38;100703.47;;;2.99;65.85
30708;BME280;17458;48.958;8.284;2023-03-03T04:31:22;100715.41;;;2.85;66.20
30708;BME280;17458;48.958;8.284;2023-03-03T04:34:06;100712.75;;;2.96;65.56
30708;BME280;17458;48.958;8.284;2023-03-03T04:36:50;100724.19;;;2.86;65.83
30708;BME280;17458;48.958;8.284;2023-03-03T04:39:34;100726.25;;;2.60;66.62
30708;BME280;17458;48.958;8.284;2023-03-03T04:42:18;100728.78;;;2.78;66.32
30708;BME280;17458;48.958;8.284;2023-03-03T04:45:04;100713.56;;;2.84;66.24
30708;BME280;17458;48.958;8.284;2023-03-03T04:47:49;100723.53;;;2.89;65.96
30708;BME280;17458;48.958;8.284;2023-03-03T04:50:37;100724.56;;;3.01;65.15
30708;BME280;17458;48.958;8.284;2023-03-03T04:53:21;100722.09;;;3.02;64.98
30708;BME280;17458;48.958;8.284;2023-03-03T04:56:05;100725.78;;;2.94;64.76
30708;BME280;17458;48.958;8.284;2023-03-03T04:58:50;100726.44;;;2.92;64.78
30708;BME280;17458;48.958;8.284;2023-03-03T05:01:35;100731.53;;;2.80;64.77
30708;BME280;17458;48.958;8.284;2023-03-03T05:04:20;100724.03;;;2.84;64.83
30708;BME280;17458;48.958;8.284;2023-03-03T05:07:04;100731.53;;;2.90;64.77
30708;BME280;17458;48.958;8.284;2023-03-03T05:09:48;100713.44;;;2.93;64.78
30708;BME280;17458;48.958;8.284;2023-03-03T05:12:32;100729.84;;;2.80;65.15
30708;BME280;17458;48.958;8.284;2023-03-03T05:15:16;100734.41;;;2.73;64.87
30708;BME280;17458;48.958;8.284;2023-03-03T05:18:00;100731.00;;;2.74;64.80
30708;BME280;17458;48.958;8.284;2023-03-03T05:20:44;100734.53;;;2.84;64.80
30708;BME280;17458;48.958;8.284;2023-03-03T05:23:28;100728.78;;;2.89;64.92
30708;BME280;17458;48.958;8.284;2023-03-03T05:26:13;100732.84;;;2.85;65.10
30708;BME280;17458;48.958;8.284;2023-03-03T05:28:57;100730.34;;;2.97;65.60
30708;BME280;17458;48.958;8.284;2023-03-03T05:31:41;100741.50;;;3.04;65.71
30708;BME280;17458;48.958;8.284;2023-03-03T05:34:25;100741.38;;;3.03;65.88
30708;BME280;17458;48.958;8.284;2023-03-03T05:37:09;100739.41;;;3.00;66.03
30708;BME280;17458;48.958;8.284;2023-03-03T05:39:53;100742.94;;;2.91;66.08
30708;BME280;17458;48.958;8.284;2023-03-03T05:42:40;100752.38;;;2.89;66.76
30708;BME280;17458;48.958;8.284;2023-03-03T05:45:24;100757.13;;;2.93;66.27
30708;BME280;17458;48.958;8.284;2023-03-03T05:48:08;100752.50;;;3.00;66.42
30708;BME280;17458;48.958;8.284;2023-03-03T05:50:53;100760.25;;;3.09;66.33
30708;BME280;17458;48.958;8.284;2023-03-03T05:53:37;100750.41;;;3.16;66.02
30708;BME280;17458;48.958;8.284;2023-03-03T05:56:21;100759.31;;;3.29;66.29
30708;BME280;17458;48.958;8.284;2023-03-03T05:59:05;100753.03;;;3.27;66.19
30708;BME280;17458;48.958;8.284;2023-03-03T06:01:49;100772.72;;;3.32;66.58
30708;BME280;17458;48.958;8.284;2023-03-03T06:04:33;100774.03;;;3.37;66.54
30708;BME280;17458;48.958;8.284;2023-03-03T06:07:18;100774.94;;;3.47;66.94
30708;BME280;17458;48.958;8.284;2023-03-03T06:10:02;100769.66;;;3.58;66.66
30708;BME280;17458;48.958;8.284;2023-03-03T06:12:49;100775.53;;;3.75;66.53
30708;BME280;17458;48.958;8.284;2023-03-03T06:15:32;100778.00;;;3.84;66.30
30708;BME280;17458;48.958;8.284;2023-03-03T06:18:16;100783.38;;;3.85;66.25
30708;BME280;17458;48.958;8.284;2023-03-03T06:21:00;100782.84;;;3.79;66.36
30708;BME280;17458;48.958;8.284;2023-03-03T06:23:45;100784.69;;;3.90;66.67
30708;BME280;17458;48.958;8.284;2023-03-03T06:26:30;100790.31;;;3.95;66.91
30708;BME280;17458;48.958;8.284;2023-03-03T06:29:15;100793.31;;;4.00;66.91
30708;BME280;17458;48.958;8.284;2023-03-03T06:31:58;100796.69;;;4.19;66.57
30708;BME280;17458;48.958;8.284;2023-03-03T06:34:42;100800.94;;;4.07;66.43
30708;BME280;17458;48.958;8.284;2023-03-03T06:37:26;100804.69;;;4.20;65.73
30708;BME280;17458;48.958;8.284;2023-03-03T06:40:10;100804.78;;;4.22;65.71
30708;BME280;17458;48.958;8.284;2023-03-03T06:42:54;100811.72;;;4.32;65.40
30708;BME280;17458;48.958;8.284;2023-03-03T06:45:39;100806.41;;;4.42;65.73
30708;BME280;17458;48.958;8.284;2023-03-03T06:48:23;100817.44;;;4.48;64.92
30708;BME280;17458;48.958;8.284;2023-03-03T06:51:35;100806.44;;;4.63;65.01
30708;BME280;17458;48.958;8.284;2023-03-03T06:54:27;100809.56;;;4.70;64.32
30708;BME280;17458;48.958;8.284;2023-03-03T06:57:31;100818.47;;;4.50;65.04
30708;BME280;17458;48.958;8.284;2023-03-03T07:00:24;100823.81;;;4.83;64.90
30708;BME280;17458;48.958;8.284;2023-03-03T07:03:16;100827.28;;;4.94;64.45
30708;BME280;17458;48.958;8.284;2023-03-03T07:06:13;100833.78;;;5.09;64.01
30708;BME280;17458;48.958;8.284;2023-03-03T07:08:59;100838.56;;;5.03;63.99
30708;BME280;17458;48.958;8.284;2023-03-03T07:11:43;100831.81;;;5.07;63.57
30708;BME280;17458;48.958;8.284;2023-03-03T07:14:29;100836.34;;;5.19;63.01
30708;BME280;17458;48.958;8.284;2023-03-03T07:17:16;100833.47;;;5.16;62.98
30708;BME280;17458;48.958;8.284;2023-03-03T07:20:00;100824.81;;;5.29;62.80
30708;BME280;17458;48.958;8.284;2023-03-03T07:22:45;100823.50;;;5.46;61.96
30708;BME280;17458;48.958;8.284;2023-03-03T07:25:33;100834.75;;;5.66;61.38
30708;BME280;17458;48.958;8.284;2023-03-03T07:28:26;100826.72;;;5.65;61.68
30708;BME280;17458;48.958;8.284;2023-03-03T07:31:38;100826.97;;;5.80;60.78
30708;BME280;17458;48.958;8.284;2023-03-03T07:34:48;100840.75;;;5.87;59.96
30708;BME280;17458;48.958;8.284;2023-03-03T07:37:37;100842.66;;;5.78;59.70
30708;BME280;17458;48.958;8.284;2023-03-03T07:40:35;100838.84;;;5.63;59.88
30708;BME280;17458;48.958;8.284;2023-03-03T07:43:29;100846.22;;;5.79;59.71
30708;BME280;17458;48.958;8.284;2023-03-03T07:46:41;100853.81;;;5.74;60.14
30708;BME280;17458;48.958;8.284;2023-03-03T07:49:37;100851.34;;;5.54;60.89
30708;BME280;17458;48.958;8.284;2023-03-03T07:52:39;100857.78;;;5.35;60.46
30708;BME280;17458;48.958;8.284;2023-03-03T07:55:26;100851.47;;;4.78;62.49
30708;BME280;17458;48.958;8.284;2023-03-03T07:58:14;100857.28;;;4.74;62.40
30708;BME280;17458;48.958;8.284;2023-03-03T08:01:30;100867.81;;;4.42;62.84
30708;BME280;17458;48.958;8.284;2023-03-03T08:04:27;100872.50;;;4.78;63.07
30708;BME280;17458;48.958;8.284;2023-03-03T08:07:16;100876.31;;;5.25;61.80
30708;BME280;17458;48.958;8.284;2023-03-03T08:10:01;100875.84;;;5.53;60.96
30708;BME280;17458;48.958;8.284;2023-03-03T08:12:45;100881.34;;;5.56;60.77
30708;BME280;17458;48.958;8.284;2023-03-03T08:15:35;100879.78;;;5.69;60.39
30708;BME280;17458;48.958;8.284;2023-03-03T08:18:37;100880.25;;;5.76;60.25
30708;BME280;17458;48.958;8.284;2023-03-03T08:21:26;100878.06;;;5.70;60.29
30708;BME280;17458;48.958;8.284;2023-03-03T08:24:10;100867.03;;;5.64;60.03
30708;BME280;17458;48.958;8.284;2023-03-03T08:26:54;100878.47;;;5.86;59.73
30708;BME280;17458;48.958;8.284;2023-03-03T08:29:38;100872.09;;;5.61;59.93
30708;BME280;17458;48.958;8.284;2023-03-03T08:32:22;100872.16;;;5.84;58.78
30708;BME280;17458;48.958;8.284;2023-03-03T08:35:07;100874.50;;;6.15;58.45
30708;BME280;17458;48.958;8.284;2023-03-03T08:37:51;100879.31;;;5.97;58.92
30708;BME280;17458;48.958;8.284;2023-03-03T08:40:36;100870.97;;;6.26;57.47
30708;BME280;17458;48.958;8.284;2023-03-03T08:43:20;100865.56;;;6.36;57.28
30708;BME280;17458;48.958;8.284;2023-03-03T08:46:06;100873.19;;;6.80;57.43
30708;BME280;17458;48.958;8.284;2023-03-03T08:48:52;100872.84;;;6.75;56.82
30708;BME280;17458;48.958;8.284;2023-03-03T08:51:37;100862.53;;;6.66;56.69
30708;BME280;17458;48.958;8.284;2023-03-03T08:54:20;100868.41;;;6.62;56.86
30708;BME280;17458;48.958;8.284;2023-03-03T08:57:04;100868.28;;;6.61;56.77
30708;BME280;17458;48.958;8.284;2023-03-03T08:59:48;100872.63;;;6.84;56.28
30708;BME280;17458;48.958;8.284;2023-03-03T09:02:33;100876.91;;;6.58;56.35
30708;BME280;17458;48.958;8.284;2023-03-03T09:05:18;100875.19;;;6.47;56.94
30708;BME280;17458;48.958;8.284;2023-03-03T09:08:04;100882.53;;;6.51;57.10
30708;BME280;17458;48.958;8.284;2023-03-03T09:10:48;100890.69;;;6.54;57.15
30708;BME280;17458;48.958;8.284;2023-03-03T09:13:32;100892.19;;;6.27;57.33
30708;BME280;17458;48.958;8.284;2023-03-03T09:16:16;100902.03;;;6.53;57.60
30708;BME280;17458;48.958;8.284;2023-03-03T09:19:34;100896.81;;;7.01;56.57
30708;BME280;17458;48.958;8.284;2023-03-03T09:22:23;100894.16;;;7.01;56.16
30708;BME280;17458;48.958;8.284;2023-03-03T09:25:20;100904.13;;;7.42;55.53
30708;BME280;17458;48.958;8.284;2023-03-03T09:28:22;100900.97;;;7.72;54.78
30708;BME280;17458;48.958;8.284;2023-03-03T09:31:20;100904.34;;;7.70;54.11
30708;BME280;17458;48.958;8.284;2023-03-03T09:34:35;100904.38;;;7.58;54.53
30708;BME280;17458;48.958;8.284;2023-03-03T09:37:28;100907.09;;;8.09;53.21
30708;BME280;17458;48.958;8.284;2023-03-03T09:52:20;100907.88;;;8.73;51.43
30708;BME280;17458;48.958;8.284;2023-03-03T10:04:40;100899.00;;;8.85;49.76
30708;BME280;17458;48.958;8.284;2023-03-03T10:07:37;100907.25;;;8.77;48.77
30708;BME280;17458;48.958;8.284;2023-03-03T10:10:43;100914.03;;;9.13;49.10
30708;BME280;17458;48.958;8.284;2023-03-03T10:14:04;100911.94;;;8.94;48.62
30708;BME280;17458;48.958;8.284;2023-03-03T10:17:19;100913.31;;;9.15;49.15
30708;BME280;17458;48.958;8.284;2023-03-03T10:20:21;100914.03;;;9.26;48.97
30708;BME280;17458;48.958;8.284;2023-03-03T10:23:19;100911.19;;;9.10;49.69
30708;BME280;17458;48.958;8.284;2023-03-03T10:29:52;100916.75;;;9.28;49.61
30708;BME280;17458;48.958;8.284;2023-03-03T10:32:50;100914.03;;;9.69;47.68
30708;BME280;17458;48.958;8.284;2023-03-03T10:41:28;100909.00;;;9.58;47.63
30708;BME280;17458;48.958;8.284;2023-03-03T10:50:35;100909.53;;;9.81;47.24
30708;BME280;17458;48.958;8.284;2023-03-03T10:56:58;100917.28;;;9.78;47.01
30708;BME280;17458;48.958;8.284;2023-03-03T11:02:52;100916.28;;;10.18;46.62
30708;BME280;17458;48.958;8.284;2023-03-03T11:05:50;100914.00;;;10.11;46.74
30708;BME280;17458;48.958;8.284;2023-03-03T11:08:55;100910.75;;;10.45;46.35
30708;BME280;17458;48.958;8.284;2023-03-03T11:15:18;100909.75;;;10.57;45.69
30708;BME280;17458;48.958;8.284;2023-03-03T11:18:24;100900.47;;;10.80;45.47
30708;BME280;17458;48.958;8.284;2023-03-03T11:21:19;100903.56;;;10.88;45.61
30708;BME280;17458;48.958;8.284;2023-03-03T11:33:20;100912.13;;;10.53;44.31
30708;BME280;17458;48.958;8.284;2023-03-03T11:38:59;100902.19;;;11.11;43.36
30708;BME280;17458;48.958;8.284;2023-03-03T11:44:45;100889.88;;;10.96;44.09
30708;BME280;17458;48.958;8.284;2023-03-03T11:47:49;100880.91;;;10.94;43.87
30708;BME280;17458;48.958;8.284;2023-03-03T11:51:12;100877.81;;;11.34;43.25
30708;BME280;17458;48.958;8.284;2023-03-03T11:54:02;100886.41;;;11.14;43.69
30708;BME280;17458;48.958;8.284;2023-03-03T11:56:48;100878.16;;;10.62;43.71
30708;BME280;17458;48.958;8.284;2023-03-03T11:59:38;100874.56;;;11.07;44.00
30708;BME280;17458;48.958;8.284;2023-03-03T12:03:13;100872.56;;;11.19;43.98
30708;BME280;17458;48.958;8.284;2023-03-03T12:05:44;100868.09;;;11.51;43.19
30708;BME280;17458;48.958;8.284;2023-03-03T12:23:39;100859.44;;;11.38;43.53
30708;BME280;17458;48.958;8.284;2023-03-03T12:26:42;100853.47;;;11.75;43.33
30708;BME280;17458;48.958;8.284;2023-03-03T12:29:41;100855.59;;;11.66;43.48
30708;BME280;17458;48.958;8.284;2023-03-03T12:39:39;100832.75;;;11.37;44.31
30708;BME280;17458;48.958;8.284;2023-03-03T12:48:40;100835.25;;;12.17;42.97
30708;BME280;17458;48.958;8.284;2023-03-03T12:51:47;100832.16;;;12.43;42.79
30708;BME280;17458;48.958;8.284;2023-03-03T12:55:04;100838.50;;;12.11;43.20
30708;BME280;17458;48.958;8.284;2023-03-03T13:04:26;100830.34;;;11.58;43.76
30708;BME280;17458;48.958;8.284;2023-03-03T13:06:58;100830.25;;;11.89;43.79
30708;BME280;17458;48.958;8.284;2023-03-03T13:13:11;100826.41;;;12.00;43.71
30708;BME280;17458;48.958;8.284;2023-03-03T13:16:03;100835.22;;;11.99;43.42
30708;BME280;17458;48.958;8.284;2023-03-03T13:19:01;100826.28;;;12.15;43.14
30708;BME280;17458;48.958;8.284;2023-03-03T13:21:54;100826.66;;;12.04;43.66
30708;BME280;17458;48.958;8.284;2023-03-03T13:27:43;100822.94;;;12.19;43.84
30708;BME280;17458;48.958;8.284;2023-03-03T13:30:38;100824.50;;;11.97;43.57
30708;BME280;17458;48.958;8.284;2023-03-03T13:33:33;100825.09;;;12.43;43.15
30708;BME280;17458;48.958;8.284;2023-03-03T13:36:18;100825.34;;;11.80;43.89
30708;BME280;17458;48.958;8.284;2023-03-03T13:39:24;100821.78;;;12.14;44.07
30708;BME280;17458;48.958;8.284;2023-03-03T13:51:33;100805.03;;;13.06;42.28
30708;BME280;17458;48.958;8.284;2023-03-03T13:54:38;100805.00;;;13.05;42.11
30708;BME280;17458;48.958;8.284;2023-03-03T13:58:19;100803.38;;;12.18;43.46
30708;BME280;17458;48.958;8.284;2023-03-03T14:03:58;100803.38;;;12.18;43.40
30708;BME280;17458;48.958;8.284;2023-03-03T14:06:52;100799.47;;;12.83;42.10
30708;BME280;17458;48.958;8.284;2023-03-03T14:10:02;100792.81;;;12.37;42.45
30708;BME280;17458;48.958;8.284;2023-03-03T14:13:07;100790.97;;;12.54;42.75
30708;BME280;17458;48.958;8.284;2023-03-03T14:16:09;100789.47;;;12.78;42.48
30708;BME280;17458;48.958;8.284;2023-03-03T14:19:27;100785.22;;;12.82;42.27
30708;BME280;17458;48.958;8.284;2023-03-03T14:22:25;100784.47;;;12.67;42.31
30708;BME280;17458;48.958;8.284;2023-03-03T14:25:13;100776.63;;;13.07;41.75
30708;BME280;17458;48.958;8.284;2023-03-03T14:28:03;100787.47;;;12.55;42.76
30708;BME280;17458;48.958;8.284;2023-03-03T14:30:47;100779.13;;;12.30;43.31
30708;BME280;17458;48.958;8.284;2023-03-03T14:33:33;100773.31;;;12.38;43.14
30708;BME280;17458;48.958;8.284;2023-03-03T14:36:25;100776.75;;;12.18;43.11
30708;BME280;17458;48.958;8.284;2023-03-03T14:42:29;100780.28;;;12.72;42.96
30708;BME280;17458;48.958;8.284;2023-03-03T14:45:21;100776.88;;;12.57;43.13
30708;BME280;17458;48.958;8.284;2023-03-03T14:51:37;100784.81;;;12.55;43.25
30708;BME280;17458;48.958;8.284;2023-03-03T14:54:27;100780.03;;;12.85;42.10
30708;BME280;17458;48.958;8.284;2023-03-03T15:00:26;100780.72;;;12.26;43.48
30708;BME280;17458;48.958;8.284;2023-03-03T15:03:23;100775.78;;;12.34;44.00
30708;BME280;17458;48.958;8.284;2023-03-03T15:06:11;100778.88;;;12.61;43.06
30708;BME280;17458;48.958;8.284;2023-03-03T15:12:26;100767.03;;;12.19;44.11
30708;BME280;17458;48.958;8.284;2023-03-03T15:15:23;100763.81;;;12.61;42.94
30708;BME280;17458;48.958;8.284;2023-03-03T15:18:09;100760.53;;;12.86;42.44
30708;BME280;17458;48.958;8.284;2023-03-03T15:21:09;100754.34;;;12.50;43.45
30708;BME280;17458;48.958;8.284;2023-03-03T15:24:05;100746.16;;;12.46;42.92
30708;BME280;17458;48.958;8.284;2023-03-03T15:27:01;100750.06;;;12.71;42.57
30708;BME280;17458;48.958;8.284;2023-03-03T15:32:57;100747.47;;;12.73;43.34
30708;BME280;17458;48.958;8.284;2023-03-03T15:35:51;100757.25;;;12.55;42.87
30708;BME280;17458;48.958;8.284;2023-03-03T15:38:47;100755.59;;;12.57;43.09
30708;BME280;17458;48.958;8.284;2023-03-03T15:41:50;100763.41;;;12.71;42.47
30708;BME280;17458;48.958;8.284;2023-03-03T15:45:09;100754.03;;;12.07;44.02
30708;BME280;17458;48.958;8.284;2023-03-03T15:48:31;100760.03;;;12.21;43.90
30708;BME280;17458;48.958;8.284;2023-03-03T15:51:46;100763.31;;;12.70;43.48
30708;BME280;17458;48.958;8.284;2023-03-03T15:54:44;100762.06;;;12.62;43.25
30708;BME280;17458;48.958;8.284;2023-03-03T15:57:46;100760.06;;;11.87;44.43
30708;BME280;17458;48.958;8.284;2023-03-03T16:00:57;100755.81;;;12.26;43.99
30708;BME280;17458;48.958;8.284;2023-03-03T16:03:42;100758.41;;;12.42;43.93
30708;BME280;17458;48.958;8.284;2023-03-03T16:06:48;100762.47;;;12.16;44.46
30708;BME280;17458;48.958;8.284;2023-03-03T16:10:10;100763.75;;;12.42;43.70
30708;BME280;17458;48.958;8.284;2023-03-03T16:16:35;100769.47;;;12.32;44.16
30708;BME280;17458;48.958;8.284;2023-03-03T16:19:37;100766.63;;;12.29;43.46
30708;BME280;17458;48.958;8.284;2023-03-03T16:28:50;100782.03;;;12.34;44.28
30708;BME280;17458;48.958;8.284;2023-03-03T16:34:56;100781.13;;;11.82;44.65
30708;BME280;17458;48.958;8.284;2023-03-03T16:47:33;100791.22;;;12.05;44.97
30708;BME280;17458;48.958;8.284;2023-03-03T16:50:34;100796.50;;;11.88;45.28
30708;BME280;17458;48.958;8.284;2023-03-03T16:56:31;100811.47;;;11.69;45.66
30708;BME280;17458;48.958;8.284;2023-03-03T16:59:38;100809.00;;;11.56;45.62
30708;BME280;17458;48.958;8.284;2023-03-03T17:05:54;100814.22;;;11.38;45.91
30708;BME280;17458;48.958;8.284;2023-03-03T17:08:51;100821.25;;;11.36;46.31
30708;BME280;17458;48.958;8.284;2023-03-03T17:11:44;100832.53;;;11.32;46.28
30708;BME280;17458;48.958;8.284;2023-03-03T17:20:50;100833.41;;;11.00;46.62
30708;BME280;17458;48.958;8.284;2023-03-03T17:23:52;100835.50;;;11.06;51.52
30708;BME280;17458;48.958;8.284;2023-03-03T17:36:15;100846.69;;;10.70;47.33
30708;BME280;17458;48.958;8.284;2023-03-03T17:42:59;100864.16;;;10.64;47.40
30708;BME280;17458;48.958;8.284;2023-03-03T17:45:47;100860.63;;;10.35;47.68
30708;BME280;17458;48.958;8.284;2023-03-03T17:55:14;100882.03;;;10.52;47.16
30708;BME280;17458;48.958;8.284;2023-03-03T18:01:19;100888.59;;;10.15;47.18
30708;BME280;17458;48.958;8.284;2023-03-03T18:04:33;100897.28;;;10.12;47.03
30708;BME280;17458;48.958;8.284;2023-03-03T18:07:56;100902.69;;;10.14;46.81
30708;BME280;17458;48.958;8.284;2023-03-03T18:14:32;100898.44;;;9.88;46.85
30708;BME280;17458;48.958;8.284;2023-03-03T18:17:34;100909.78;;;9.85;47.15
30708;BME280;17458;48.958;8.284;2023-03-03T18:23:42;100907.78;;;9.81;47.09
30708;BME280;17458;48.958;8.284;2023-03-03T18:29:26;100917.72;;;9.71;47.42
30708;BME280;17458;48.958;8.284;2023-03-03T18:35:45;100925.25;;;9.50;47.57